sensor_id;sensor_type;location;lat;lon;timestamp;pressure;altitude;pressure_sealevel;temperature;humidity
73171;BME280;61381;50.118;19.962;2023-05-07T00:02:52;98587.69;;;9.01;100.00
73171;BME280;61381;50.118;19.962;2023-05-07T00:07:54;98578.09;;;8.95;100.00
73171;BME280;61381;50.118;19.962;2023-05-07T00:12:55;98583.97;;;8.92;100.00
73171;BME280;61381;50.118;19.962;2023-05-07T00:17:56;98588.78;;;8.85;100.00
73171;BME280;61381;50.118;19.962;2023-05-07T00:22:59;98584.81;;;8.82;100.00
73171;BME280;61381;50.118;19.962;2023-05-07T00:28:00;98592.53;;;8.89;100.00
73171;BME280;61381;50.118;19.962;2023-05-07T00:33:01;98586.34;;;9.04;100.00
73171;BME280;61381;50.118;19.962;2023-05-07T00:38:03;98596.00;;;8.95;100.00
73171;BME280;61381;50.118;19.962;2023-05-07T00:43:04;98608.03;;;8.77;100.00
73171;BME280;61381;50.118;19.962;2023-05-07T00:48:05;98593.63;;;8.72;100.00
73171;BME280;61381;50.118;19.962;2023-05-07T00:53:08;98601.88;;;8.91;100.00
73171;BME280;61381;50.118;19.962;2023-05-07T00:58:09;98596.56;;;8.66;100.00
73171;BME280;61381;50.118;19.962;2023-05-07T01:03:10;98605.91;;;8.63;100.00
73171;BME280;61381;50.118;19.962;2023-05-07T01:08:13;98605.38;;;8.51;100.00
73171;BME280;61381;50.118;19.962;2023-05-07T01:13:15;98602.19;;;8.54;100.00
73171;BME280;61381;50.118;19.962;2023-05-07T01:18:16;98611.81;;;8.55;100.00
73171;BME280;61381;50.118;19.962;2023-05-07T01:23:19;98619.00;;;8.85;100.00
73171;BME280;61381;50.118;19.962;2023-05-07T01:28:20;98623.00;;;8.57;100.00
73171;BME280;61381;50.118;19.962;2023-05-07T01:33:21;98621.38;;;8.30;100.00
73171;BME280;61381;50.118;19.962;2023-05-07T01:38:24;98622.72;;;8.23;100.00
73171;BME280;61381;50.118;19.962;2023-05-07T01:43:26;98621.34;;;8.04;100.00
73171;BME280;61381;50.118;19.962;2023-05-07T01:48:27;98623.19;;;7.94;100.00
73171;BME280;61381;50.118;19.962;2023-05-07T01:53:35;98618.66;;;7.89;100.00
73171;BME280;61381;50.118;19.962;2023-05-07T01:58:36;98615.94;;;7.79;100.00
73171;BME280;61381;50.118;19.962;2023-05-07T02:03:37;98621.53;;;7.77;100.00
73171;BME280;61381;50.118;19.962;2023-05-07T02:08:40;98619.94;;;7.76;100.00
73171;BME280;61381;50.118;19.962;2023-05-07T02:13:41;98619.88;;;7.61;100.00
73171;BME280;61381;50.118;19.962;2023-05-07T02:18:42;98620.19;;;7.75;100.00
73171;BME280;61381;50.118;19.962;2023-05-07T02:23:44;98631.75;;;8.01;100.00
73171;BME280;61381;50.118;19.962;2023-05-07T02:28:45;98619.97;;;7.86;100.00
73171;BME280;61381;50.118;19.962;2023-05-07T02:33:46;98625.31;;;8.02;100.00
73171;BME280;61381;50.118;19.962;2023-05-07T02:38:49;98640.50;;;7.86;100.00
73171;BME280;61381;50.118;19.962;2023-05-07T02:43:50;98636.00;;;7.92;100.00
73171;BME280;61381;50.118;19.962;2023-05-07T02:48:51;98638.34;;;7.78;100.00
73171;BME280;61381;50.118;19.962;2023-05-07T02:53:53;98642.66;;;7.89;100.00
73171;BME280;61381;50.118;19.962;2023-05-07T02:58:54;98648.47;;;7.76;100.00
73171;BME280;61381;50.118;19.962;2023-05-07T03:03:55;98644.69;;;7.66;100.00
73171;BME280;61381;50.118;19.962;2023-05-07T03:08:58;98644.38;;;7.58;100.00
73171;BME280;61381;50.118;19.962;2023-05-07T03:13:59;98657.25;;;7.71;100.00
73171;BME280;61381;50.118;19.962;2023-05-07T03:19:00;98663.34;;;7.61;100.00
73171;BME280;61381;50.118;19.962;2023-05-07T03:24:02;98675.78;;;7.45;100.00
73171;BME280;61381;50.118;19.962;2023-05-07T03:29:03;98672.59;;;7.48;100.00
73171;BME280;61381;50.118;19.962;2023-05-07T03:34:04;98676.63;;;7.46;100.00
73171;BME280;61381;50.118;19.962;2023-05-07T03:39:06;98685.06;;;7.32;100.00
73171;BME280;61381;50.118;19.962;2023-05-07T03:44:08;98693.56;;;7.29;100.00
73171;BME280;61381;50.118;19.962;2023-05-07T03:49:09;98700.13;;;7.17;100.00
73171;BME280;61381;50.118;19.962;2023-05-07T03:54:11;98694.44;;;7.40;100.00
73171;BME280;61381;50.118;19.962;2023-05-07T03:59:13;98713.19;;;7.18;100.00
73171;BME280;61381;50.118;19.962;2023-05-07T04:04:14;98710.00;;;7.16;100.00
73171;BME280;61381;50.118;19.962;2023-05-07T04:09:16;98710.16;;;7.37;100.00
73171;BME280;61381;50.118;19.962;2023-05-07T04:14:17;98722.59;;;7.26;100.00
73171;BME280;61381;50.118;19.962;2023-05-07T04:19:18;98720.50;;;7.33;100.00
73171;BME280;61381;50.118;19.962;2023-05-07T04:24:21;98727.59;;;7.17;100.00
73171;BME280;61381;50.118;19.962;2023-05-07T04:29:22;98730.66;;;6.99;100.00
73171;BME280;61381;50.118;19.962;2023-05-07T04:34:23;98734.47;;;7.08;100.00
73171;BME280;61381;50.118;19.962;2023-05-07T04:39:25;98744.00;;;7.04;100.00
73171;BME280;61381;50.118;19.962;2023-05-07T04:44:26;98754.53;;;7.21;100.00
73171;BME280;61381;50.118;19.962;2023-05-07T04:49:27;98764.34;;;7.15;100.00
73171;BME280;61381;50.118;19.962;2023-05-07T04:54:29;98769.03;;;7.03;100.00
73171;BME280;61381;50.118;19.962;2023-05-07T04:59:30;98764.72;;;6.96;100.00
73171;BME280;61381;50.118;19.962;2023-05-07T05:04:32;98785.47;;;6.94;100.00
73171;BME280;61381;50.118;19.962;2023-05-07T05:09:35;98781.06;;;7.10;100.00
73171;BME280;61381;50.118;19.962;2023-05-07T05:14:36;98785.31;;;7.06;100.00
73171;BME280;61381;50.118;19.962;2023-05-07T05:19:37;98787.72;;;7.08;100.00
73171;BME280;61381;50.118;19.962;2023-05-07T05:24:39;98793.44;;;6.89;100.00
73171;BME280;61381;50.118;19.962;2023-05-07T05:29:40;98803.69;;;6.75;100.00
73171;BME280;61381;50.118;19.962;2023-05-07T05:34:41;98819.75;;;6.58;100.00
73171;BME280;61381;50.118;19.962;2023-05-07T05:39:43;98831.00;;;6.66;100.00
73171;BME280;61381;50.118;19.962;2023-05-07T05:44:44;98828.78;;;6.57;100.00
73171;BME280;61381;50.118;19.962;2023-05-07T05:49:45;98851.81;;;6.47;100.00
73171;BME280;61381;50.118;19.962;2023-05-07T05:54:48;98838.25;;;6.48;100.00
73171;BME280;61381;50.118;19.962;2023-05-07T05:59:49;98851.13;;;6.34;100.00
73171;BME280;61381;50.118;19.962;2023-05-07T06:04:50;98855.47;;;6.40;100.00
73171;BME280;61381;50.118;19.962;2023-05-07T06:09:52;98853.16;;;6.49;100.00
73171;BME280;61381;50.118;19.962;2023-05-07T06:14:53;98861.88;;;6.45;100.00
73171;BME280;61381;50.118;19.962;2023-05-07T06:19:54;98861.13;;;6.49;100.00
73171;BME280;61381;50.118;19.962;2023-05-07T06:24:57;98864.53;;;6.45;100.00
73171;BME280;61381;50.118;19.962;2023-05-07T06:29:57;98867.44;;;6.43;100.00
73171;BME280;61381;50.118;19.962;2023-05-07T06:34:58;98876.19;;;6.60;100.00
73171;BME280;61381;50.118;19.962;2023-05-07T06:40:01;98875.66;;;6.86;100.00
73171;BME280;61381;50.118;19.962;2023-05-07T06:45:02;98869.50;;;6.80;100.00
73171;BME280;61381;50.118;19.962;2023-05-07T06:50:04;98884.31;;;6.71;100.00
73171;BME280;61381;50.118;19.962;2023-05-07T06:55:08;98883.63;;;6.58;100.00
73171;BME280;61381;50.118;19.962;2023-05-07T07:00:10;98892.28;;;6.71;100.00
73171;BME280;61381;50.118;19.962;2023-05-07T07:05:11;98903.25;;;6.74;100.00
73171;BME280;61381;50.118;19.962;2023-05-07T07:10:13;98901.94;;;6.77;100.00
73171;BME280;61381;50.118;19.962;2023-05-07T07:15:15;98909.78;;;6.89;100.00
73171;BME280;61381;50.118;19.962;2023-05-07T07:20:16;98911.16;;;6.91;100.00
73171;BME280;61381;50.118;19.962;2023-05-07T07:25:18;98917.94;;;7.04;100.00
73171;BME280;61381;50.118;19.962;2023-05-07T07:30:19;98921.25;;;6.89;100.00
73171;BME280;61381;50.118;19.962;2023-05-07T07:35:20;98931.41;;;6.70;100.00
73171;BME280;61381;50.118;19.962;2023-05-07T07:40:23;98934.50;;;6.84;100.00
73171;BME280;61381;50.118;19.962;2023-05-07T07:45:24;98950.41;;;7.01;100.00
73171;BME280;61381;50.118;19.962;2023-05-07T07:50:25;98954.97;;;6.78;100.00
73171;BME280;61381;50.118;19.962;2023-05-07T07:55:27;98949.31;;;6.75;100.00
73171;BME280;61381;50.118;19.962;2023-05-07T08:00:29;98957.28;;;6.75;100.00
73171;BME280;61381;50.118;19.962;2023-05-07T08:05:29;98966.16;;;6.58;100.00
73171;BME280;61381;50.118;19.962;2023-05-07T08:10:32;98964.09;;;6.66;100.00
73171;BME280;61381;50.118;19.962;2023-05-07T08:15:33;98963.59;;;6.69;100.00
73171;BME280;61381;50.118;19.962;2023-05-07T08:20:35;98976.00;;;6.41;100.00
73171;BME280;61381;50.118;19.962;2023-05-07T08:25:37;98980.84;;;6.44;100.00
73171;BME280;61381;50.118;19.962;2023-05-07T08:30:39;98981.97;;;6.48;100.00
73171;BME280;61381;50.118;19.962;2023-05-07T08:35:39;98992.47;;;6.38;100.00
73171;BME280;61381;50.118;19.962;2023-05-07T08:40:42;99007.16;;;6.40;100.00
73171;BME280;61381;50.118;19.962;2023-05-07T08:45:45;99006.69;;;6.66;100.00
73171;BME280;61381;50.118;19.962;2023-05-07T08:50:46;99012.44;;;6.57;100.00
73171;BME280;61381;50.118;19.962;2023-05-07T08:55:48;99020.63;;;6.73;100.00
73171;BME280;61381;50.118;19.962;2023-05-07T09:00:51;99028.50;;;6.46;100.00
73171;BME280;61381;50.118;19.962;2023-05-07T09:05:54;99031.47;;;6.32;100.00
73171;BME280;61381;50.118;19.962;2023-05-07T09:10:56;99023.25;;;6.51;100.00
73171;BME280;61381;50.118;19.962;2023-05-07T09:15:57;99035.94;;;6.43;100.00
73171;BME280;61381;50.118;19.962;2023-05-07T09:20:58;99038.59;;;6.83;100.00
73171;BME280;61381;50.118;19.962;2023-05-07T09:26:02;99048.19;;;6.62;100.00
73171;BME280;61381;50.118;19.962;2023-05-07T09:31:03;99045.34;;;6.51;100.00
73171;BME280;61381;50.118;19.962;2023-05-07T09:36:05;99055.34;;;6.44;100.00
73171;BME280;61381;50.118;19.962;2023-05-07T09:41:09;99059.88;;;6.60;100.00
73171;BME280;61381;50.118;19.962;2023-05-07T09:46:12;99067.84;;;6.60;100.00
73171;BME280;61381;50.118;19.962;2023-05-07T09:51:22;99067.84;;;6.77;100.00
73171;BME280;61381;50.118;19.962;2023-05-07T09:56:26;99073.38;;;6.93;100.00
73171;BME280;61381;50.118;19.962;2023-05-07T10:01:30;99082.44;;;6.75;100.00
73171;BME280;61381;50.118;19.962;2023-05-07T10:06:31;99087.75;;;6.75;100.00
73171;BME280;61381;50.118;19.962;2023-05-07T10:11:35;99098.25;;;6.82;100.00
73171;BME280;61381;50.118;19.962;2023-05-07T10:16:36;99089.63;;;6.74;100.00
73171;BME280;61381;50.118;19.962;2023-05-07T10:21:39;99096.72;;;6.69;100.00
73171;BME280;61381;50.118;19.962;2023-05-07T10:26:43;99095.50;;;6.76;100.00
73171;BME280;61381;50.118;19.962;2023-05-07T10:31:53;99105.53;;;6.69;100.00
73171;BME280;61381;50.118;19.962;2023-05-07T10:36:56;99109.16;;;6.80;100.00
73171;BME280;61381;50.118;19.962;2023-05-07T10:42:07;99111.53;;;6.99;100.00
73171;BME280;61381;50.118;19.962;2023-05-07T10:47:09;99130.13;;;6.76;100.00
73171;BME280;61381;50.118;19.962;2023-05-07T10:52:12;99123.25;;;6.81;100.00
73171;BME280;61381;50.118;19.962;2023-05-07T10:57:34;99133.72;;;7.04;100.00
73171;BME280;61381;50.118;19.962;2023-05-07T11:03:05;99134.59;;;7.10;100.00
73171;BME280;61381;50.118;19.962;2023-05-07T11:08:06;99144.44;;;7.26;100.00
73171;BME280;61381;50.118;19.962;2023-05-07T11:13:09;99135.03;;;7.02;100.00
73171;BME280;61381;50.118;19.962;2023-05-07T11:18:11;99134.75;;;7.42;100.00
73171;BME280;61381;50.118;19.962;2023-05-07T11:28:48;99138.94;;;7.55;100.00
73171;BME280;61381;50.118;19.962;2023-05-07T11:33:49;99143.28;;;7.89;100.00
73171;BME280;61381;50.118;19.962;2023-05-07T11:38:50;99141.63;;;8.04;100.00
73171;BME280;61381;50.118;19.962;2023-05-07T11:43:57;99146.88;;;7.72;100.00
73171;BME280;61381;50.118;19.962;2023-05-07T11:48:58;99158.03;;;7.69;100.00
73171;BME280;61381;50.118;19.962;2023-05-07T11:53:59;99158.69;;;7.81;100.00
73171;BME280;61381;50.118;19.962;2023-05-07T11:59:01;99160.84;;;8.07;100.00
73171;BME280;61381;50.118;19.962;2023-05-07T12:04:03;99168.25;;;7.55;100.00
73171;BME280;61381;50.118;19.962;2023-05-07T12:09:04;99182.19;;;7.62;100.00
73171;BME280;61381;50.118;19.962;2023-05-07T12:14:07;99178.50;;;8.13;100.00
73171;BME280;61381;50.118;19.962;2023-05-07T12:19:08;99180.00;;;8.03;100.00
73171;BME280;61381;50.118;19.962;2023-05-07T12:24:09;99187.22;;;7.81;100.00
73171;BME280;61381;50.118;19.962;2023-05-07T12:29:12;99183.88;;;7.46;100.00
73171;BME280;61381;50.118;19.962;2023-05-07T12:34:13;99189.38;;;7.40;100.00
73171;BME280;61381;50.118;19.962;2023-05-07T12:39:15;99197.13;;;7.85;100.00
73171;BME280;61381;50.118;19.962;2023-05-07T12:44:17;99197.41;;;7.62;100.00
73171;BME280;61381;50.118;19.962;2023-05-07T12:49:18;99201.63;;;7.80;100.00
73171;BME280;61381;50.118;19.962;2023-05-07T12:54:29;99195.97;;;7.76;100.00
73171;BME280;61381;50.118;19.962;2023-05-07T12:59:36;99206.06;;;7.52;100.00
73171;BME280;61381;50.118;19.962;2023-05-07T13:04:38;99205.34;;;7.57;100.00
73171;BME280;61381;50.118;19.962;2023-05-07T13:09:38;99202.28;;;7.48;100.00
73171;BME280;61381;50.118;19.962;2023-05-07T13:14:41;99208.94;;;7.90;100.00
73171;BME280;61381;50.118;19.962;2023-05-07T13:19:42;99214.56;;;8.15;100.00
73171;BME280;61381;50.118;19.962;2023-05-07T13:24:43;99221.16;;;7.85;100.00
73171;BME280;61381;50.118;19.962;2023-05-07T13:29:45;99213.00;;;7.53;100.00
73171;BME280;61381;50.118;19.962;2023-05-07T13:34:46;99225.28;;;7.54;100.00
73171;BME280;61381;50.118;19.962;2023-05-07T13:39:47;99226.19;;;7.60;100.00
73171;BME280;61381;50.118;19.962;2023-05-07T13:44:49;99224.16;;;7.50;100.00
73171;BME280;61381;50.118;19.962;2023-05-07T13:49:50;99221.88;;;7.37;100.00
73171;BME280;61381;50.118;19.962;2023-05-07T13:54:51;99221.84;;;7.20;100.00
73171;BME280;61381;50.118;19.962;2023-05-07T13:59:54;99229.16;;;7.24;100.00
73171;BME280;61381;50.118;19.962;2023-05-07T14:04:55;99236.63;;;7.10;100.00
73171;BME280;61381;50.118;19.962;2023-05-07T14:09:56;99227.53;;;7.06;100.00
73171;BME280;61381;50.118;19.962;2023-05-07T14:14:59;99226.06;;;7.16;100.00
73171;BME280;61381;50.118;19.962;2023-05-07T14:20:00;99240.13;;;7.67;100.00
73171;BME280;61381;50.118;19.962;2023-05-07T14:25:01;99243.41;;;7.18;100.00
73171;BME280;61381;50.118;19.962;2023-05-07T14:30:03;99245.69;;;7.26;100.00
73171;BME280;61381;50.118;19.962;2023-05-07T14:35:05;99265.69;;;7.12;100.00
73171;BME280;61381;50.118;19.962;2023-05-07T14:40:07;99266.75;;;7.28;100.00
73171;BME280;61381;50.118;19.962;2023-05-07T14:45:10;99264.91;;;7.11;100.00
73171;BME280;61381;50.118;19.962;2023-05-07T14:50:11;99266.91;;;7.04;100.00
73171;BME280;61381;50.118;19.962;2023-05-07T14:55:12;99274.03;;;6.99;100.00
73171;BME280;61381;50.118;19.962;2023-05-07T15:00:15;99282.09;;;7.04;100.00
73171;BME280;61381;50.118;19.962;2023-05-07T15:05:16;99276.44;;;6.83;100.00
73171;BME280;61381;50.118;19.962;2023-05-07T15:10:20;99278.50;;;6.81;100.00
73171;BME280;61381;50.118;19.962;2023-05-07T15:15:22;99285.75;;;6.69;100.00
73171;BME280;61381;50.118;19.962;2023-05-07T15:20:24;99293.59;;;6.47;100.00
73171;BME280;61381;50.118;19.962;2023-05-07T15:25:25;99286.94;;;6.32;100.00
73171;BME280;61381;50.118;19.962;2023-05-07T15:30:27;99289.97;;;6.24;100.00
73171;BME280;61381;50.118;19.962;2023-05-07T15:35:28;99286.13;;;6.32;100.00
73171;BME280;61381;50.118;19.962;2023-05-07T15:40:29;99294.56;;;6.40;100.00
73171;BME280;61381;50.118;19.962;2023-05-07T15:45:32;99305.22;;;6.69;100.00
73171;BME280;61381;50.118;19.962;2023-05-07T15:50:33;99304.19;;;6.87;100.00
73171;BME280;61381;50.118;19.962;2023-05-07T15:55:34;99299.72;;;6.76;100.00
73171;BME280;61381;50.118;19.962;2023-05-07T16:00:37;99292.84;;;6.63;100.00
73171;BME280;61381;50.118;19.962;2023-05-07T16:05:38;99296.13;;;6.53;100.00
73171;BME280;61381;50.118;19.962;2023-05-07T16:10:39;99303.19;;;6.48;100.00
73171;BME280;61381;50.118;19.962;2023-05-07T16:15:41;99301.44;;;6.53;100.00
73171;BME280;61381;50.118;19.962;2023-05-07T16:20:42;99312.28;;;6.64;100.00
73171;BME280;61381;50.118;19.962;2023-05-07T16:25:43;99310.13;;;6.49;100.00
73171;BME280;61381;50.118;19.962;2023-05-07T16:30:46;99307.09;;;6.57;100.00
73171;BME280;61381;50.118;19.962;2023-05-07T16:35:50;99304.41;;;6.57;100.00
73171;BME280;61381;50.118;19.962;2023-05-07T16:40:51;99310.38;;;6.47;100.00
73171;BME280;61381;50.118;19.962;2023-05-07T16:45:54;99313.66;;;6.37;100.00
73171;BME280;61381;50.118;19.962;2023-05-07T16:50:56;99313.44;;;6.27;100.00
73171;BME280;61381;50.118;19.962;2023-05-07T16:55:57;99318.50;;;6.40;100.00
73171;BME280;61381;50.118;19.962;2023-05-07T17:01:00;99317.97;;;6.15;100.00
73171;BME280;61381;50.118;19.962;2023-05-07T17:06:01;99317.28;;;6.19;100.00
73171;BME280;61381;50.118;19.962;2023-05-07T17:11:03;99328.47;;;6.21;100.00
73171;BME280;61381;50.118;19.962;2023-05-07T17:16:05;99332.44;;;6.19;100.00
73171;BME280;61381;50.118;19.962;2023-05-07T17:21:06;99318.75;;;6.27;100.00
73171;BME280;61381;50.118;19.962;2023-05-07T17:26:11;99335.44;;;6.22;100.00
73171;BME280;61381;50.118;19.962;2023-05-07T17:31:13;99341.22;;;6.19;100.00
73171;BME280;61381;50.118;19.962;2023-05-07T17:36:14;99344.91;;;6.30;100.00
73171;BME280;61381;50.118;19.962;2023-05-07T17:41:15;99336.34;;;6.28;100.00
73171;BME280;61381;50.118;19.962;2023-05-07T17:46:18;99351.41;;;6.22;100.00
73171;BME280;61381;50.118;19.962;2023-05-07T17:51:18;99351.84;;;6.19;100.00
73171;BME280;61381;50.118;19.962;2023-05-07T17:56:20;99351.72;;;6.26;100.00
73171;BME280;61381;50.118;19.962;2023-05-07T18:01:22;99358.13;;;6.01;100.00
73171;BME280;61381;50.118;19.962;2023-05-07T18:06:23;99370.47;;;5.96;100.00
73171;BME280;61381;50.118;19.962;2023-05-07T18:11:24;99382.88;;;6.02;100.00
73171;BME280;61381;50.118;19.962;2023-05-07T18:16:26;99382.75;;;5.97;100.00
73171;BME280;61381;50.118;19.962;2023-05-07T18:21:27;99383.13;;;6.00;100.00
73171;BME280;61381;50.118;19.962;2023-05-07T18:26:28;99385.19;;;6.10;100.00
73171;BME280;61381;50.118;19.962;2023-05-07T18:31:31;99389.47;;;5.99;100.00
73171;BME280;61381;50.118;19.962;2023-05-07T18:36:32;99408.03;;;5.87;100.00
73171;BME280;61381;50.118;19.962;2023-05-07T18:41:33;99400.53;;;5.84;100.00
73171;BME280;61381;50.118;19.962;2023-05-07T18:46:36;99405.72;;;5.91;100.00
73171;BME280;61381;50.118;19.962;2023-05-07T18:51:37;99409.53;;;5.83;100.00
73171;BME280;61381;50.118;19.962;2023-05-07T18:56:39;99418.56;;;5.82;100.00
73171;BME280;61381;50.118;19.962;2023-05-07T19:01:42;99416.69;;;5.83;100.00
73171;BME280;61381;50.118;19.962;2023-05-07T19:06:43;99418.34;;;5.84;100.00
73171;BME280;61381;50.118;19.962;2023-05-07T19:11:44;99430.22;;;5.81;100.00
73171;BME280;61381;50.118;19.962;2023-05-07T19:16:46;99426.06;;;5.74;100.00
73171;BME280;61381;50.118;19.962;2023-05-07T19:21:47;99413.69;;;5.67;100.00
73171;BME280;61381;50.118;19.962;2023-05-07T19:26:48;99431.38;;;5.74;100.00
73171;BME280;61381;50.118;19.962;2023-05-07T19:31:51;99431.94;;;5.64;100.00
73171;BME280;61381;50.118;19.962;2023-05-07T19:36:52;99423.59;;;5.60;100.00
73171;BME280;61381;50.118;19.962;2023-05-07T19:41:53;99426.53;;;5.70;100.00
73171;BME280;61381;50.118;19.962;2023-05-07T19:46:57;99428.56;;;5.57;100.00
73171;BME280;61381;50.118;19.962;2023-05-07T19:51:58;99429.38;;;5.57;100.00
73171;BME280;61381;50.118;19.962;2023-05-07T19:56:59;99432.84;;;5.58;100.00
73171;BME280;61381;50.118;19.962;2023-05-07T20:02:01;99436.69;;;5.74;100.00
73171;BME280;61381;50.118;19.962;2023-05-07T20:07:02;99436.81;;;5.79;100.00
73171;BME280;61381;50.118;19.962;2023-05-07T20:12:04;99433.34;;;5.78;100.00
73171;BME280;61381;50.118;19.962;2023-05-07T20:17:07;99441.66;;;5.70;100.00
73171;BME280;61381;50.118;19.962;2023-05-07T20:22:07;99440.75;;;5.88;100.00
73171;BME280;61381;50.118;19.962;2023-05-07T20:27:09;99437.94;;;5.71;100.00
73171;BME280;61381;50.118;19.962;2023-05-07T20:32:11;99440.53;;;5.78;100.00
73171;BME280;61381;50.118;19.962;2023-05-07T20:37:13;99448.50;;;5.89;100.00
73171;BME280;61381;50.118;19.962;2023-05-07T20:42:14;99448.81;;;5.69;100.00
73171;BME280;61381;50.118;19.962;2023-05-07T20:47:16;99457.22;;;5.54;100.00
73171;BME280;61381;50.118;19.962;2023-05-07T20:52:17;99451.69;;;5.56;100.00
73171;BME280;61381;50.118;19.962;2023-05-07T20:57:18;99453.50;;;5.56;100.00
73171;BME280;61381;50.118;19.962;2023-05-07T21:02:20;99464.38;;;5.54;100.00
73171;BME280;61381;50.118;19.962;2023-05-07T21:07:22;99468.31;;;5.51;100.00
73171;BME280;61381;50.118;19.962;2023-05-07T21:12:23;99471.44;;;5.48;100.00
73171;BME280;61381;50.118;19.962;2023-05-07T21:17:25;99475.09;;;5.47;100.00
73171;BME280;61381;50.118;19.962;2023-05-07T21:22:26;99477.53;;;5.49;100.00
73171;BME280;61381;50.118;19.962;2023-05-07T21:27:27;99476.69;;;5.36;100.00
73171;BME280;61381;50.118;19.962;2023-05-07T21:32:30;99476.47;;;5.38;100.00
73171;BME280;61381;50.118;19.962;2023-05-07T21:37:31;99478.56;;;5.36;100.00
73171;BME280;61381;50.118;19.962;2023-05-07T21:42:32;99476.34;;;5.33;100.00
73171;BME280;61381;50.118;19.962;2023-05-07T21:47:34;99475.97;;;5.29;100.00
73171;BME280;61381;50.118;19.962;2023-05-07T21:52:35;99478.63;;;5.29;100.00
73171;BME280;61381;50.118;19.962;2023-05-07T21:57:36;99484.66;;;5.36;100.00
73171;BME280;61381;50.118;19.962;2023-05-07T22:02:38;99485.84;;;5.22;100.00
73171;BME280;61381;50.118;19.962;2023-05-07T22:07:39;99475.16;;;5.29;100.00
73171;BME280;61381;50.118;19.962;2023-05-07T22:12:40;99475.44;;;5.21;100.00
73171;BME280;61381;50.118;19.962;2023-05-07T22:17:43;99477.66;;;5.24;100.00
73171;BME280;61381;50.118;19.962;2023-05-07T22:22:45;99479.06;;;5.26;100.00
73171;BME280;61381;50.118;19.962;2023-05-07T22:27:46;99487.28;;;5.06;100.00
73171;BME280;61381;50.118;19.962;2023-05-07T22:32:49;99485.66;;;5.05;100.00
73171;BME280;61381;50.118;19.962;2023-05-07T22:37:51;99485.97;;;4.97;100.00
73171;BME280;61381;50.118;19.962;2023-05-07T22:42:52;99479.19;;;5.01;100.00
73171;BME280;61381;50.118;19.962;2023-05-07T22:47:54;99478.75;;;5.04;100.00
73171;BME280;61381;50.118;19.962;2023-05-07T22:52:55;99471.91;;;4.96;100.00
73171;BME280;61381;50.118;19.962;2023-05-07T22:57:56;99481.19;;;5.06;100.00
73171;BME280;61381;50.118;19.962;2023-05-07T23:02:58;99474.09;;;4.99;100.00
73171;BME280;61381;50.118;19.962;2023-05-07T23:07:59;99458.41;;;4.98;100.00
73171;BME280;61381;50.118;19.962;2023-05-07T23:13:00;99461.75;;;5.05;100.00
73171;BME280;61381;50.118;19.962;2023-05-07T23:18:02;99454.09;;;4.97;100.00
73171;BME280;61381;50.118;19.962;2023-05-07T23:23:03;99460.44;;;4.96;100.00
73171;BME280;61381;50.118;19.962;2023-05-07T23:28:04;99461.03;;;5.16;100.00
73171;BME280;61381;50.118;19.962;2023-05-07T23:33:06;99450.69;;;5.08;100.00
73171;BME280;61381;50.118;19.962;2023-05-07T23:38:07;99457.75;;;5.14;100.00
73171;BME280;61381;50.118;19.962;2023-05-07T23:43:08;99456.00;;;5.27;100.00
73171;BME280;61381;50.118;19.962;2023-05-07T23:48:11;99459.16;;;5.17;100.00
73171;BME280;61381;50.118;19.962;2023-05-07T23:53:12;99468.16;;;5.34;100.00
73171;BME280;61381;50.118;19.962;2023-05-07T23:58:12;99456.13;;;5.32;100.00
